Time;durP1;ratioP1;P1;durP2;ratioP2;P2;SDS_P1;SDS_P2;PMS_P1;PMS_P2;Temp;Humidity;BMP_temperature;BMP_pressure;BME280_temperature;BME280_humidity;BME280_pressure;Samples;Min_cycle;Max_cycle;Signal;HPM_P1;HPM_P2
2023/09/09 00:00:39;;;;;;;4.30;4.00;;;;;;;19.40;64.24;95274.59;5135899;28;20223;-65
2023/09/09 00:03:05;;;;;;;5.47;4.60;;;;;;;19.38;63.61;95274.97;5117933;28;20222;-65
2023/09/09 00:05:33;;;;;;;4.50;4.10;;;;;;;19.35;64.45;95270.19;5136048;28;20191;-65
2023/09/09 00:08:00;;;;;;;5.80;4.38;;;;;;;19.37;64.06;95278.97;5117910;28;20195;-65
2023/09/09 00:10:26;;;;;;;4.90;4.47;;;;;;;19.33;64.03;95274.59;5135948;28;20236;-66
2023/09/09 00:12:53;;;;;;;5.22;4.72;;;;;;;19.30;64.44;95283.81;5135888;28;20240;-66
2023/09/09 00:15:21;;;;;;;5.18;4.68;;;;;;;19.23;64.62;95277.03;5136054;28;20191;-66
2023/09/09 00:17:48;;;;;;;5.15;4.60;;;;;;;19.23;64.67;95277.03;5118140;28;20211;-66
2023/09/09 00:20:15;;;;;;;5.28;4.45;;;;;;;19.21;64.79;95273.06;5135749;28;20187;-65
2023/09/09 00:22:42;;;;;;;4.75;4.30;;;;;;;19.21;65.05;95271.06;5117652;27;20198;-66
2023/09/09 00:25:09;;;;;;;5.45;4.95;;;;;;;19.20;65.39;95277.03;5139677;27;20195;-66
2023/09/09 00:27:36;;;;;;;5.47;5.03;;;;;;;19.18;65.38;95269.06;5139679;27;20183;-66
2023/09/09 00:30:03;;;;;;;7.05;5.20;;;;;;;19.14;65.50;95268.28;5117957;28;20224;-66
2023/09/09 00:32:31;;;;;;;6.82;4.93;;;;;;;19.11;65.38;95265.50;5118021;28;20192;-66
2023/09/09 00:34:58;;;;;;;5.43;4.93;;;;;;;19.08;65.76;95269.88;5118666;28;20199;-66
2023/09/09 00:37:24;;;;;;;5.75;5.18;;;;;;;19.08;65.88;95272.69;5118949;28;20204;-66
2023/09/09 00:39:51;;;;;;;6.15;5.55;;;;;;;19.06;65.90;95277.84;5118682;28;20184;-66
2023/09/09 00:42:18;;;;;;;5.85;5.35;;;;;;;19.06;66.16;95282.66;5118958;28;20272;-66
2023/09/09 00:44:45;;;;;;;4.82;4.43;;;;;;;19.04;66.26;95277.47;5118914;28;20183;-66
2023/09/09 00:47:12;;;;;;;6.63;4.93;;;;;;;19.02;66.61;95279.88;5117664;28;20191;-66
2023/09/09 00:49:40;;;;;;;4.95;4.45;;;;;;;19.02;66.46;95281.88;5118036;28;20199;-66
2023/09/09 00:52:07;;;;;;;6.60;5.90;;;;;;;19.00;66.38;95273.91;5118632;28;20187;-66
2023/09/09 00:54:34;;;;;;;5.45;4.95;;;;;;;18.99;67.00;95278.69;5118598;28;20192;-66
2023/09/09 00:57:01;;;;;;;5.50;5.10;;;;;;;18.93;67.03;95271.91;5117708;28;20241;-66
2023/09/09 00:59:28;;;;;;;5.53;5.03;;;;;;;18.92;67.04;95269.53;5118290;28;20244;-66
2023/09/09 01:01:54;;;;;;;5.60;5.10;;;;;;;18.92;67.05;95270.31;5117791;28;20196;-65
2023/09/09 01:04:21;;;;;;;7.03;5.05;;;;;;;18.91;67.25;95271.50;5117618;28;20214;-65
2023/09/09 01:06:50;;;;;;;5.63;5.13;;;;;;;18.91;67.29;95267.91;5117259;28;20196;-65
2023/09/09 01:09:16;;;;;;;6.60;4.93;;;;;;;18.88;67.40;95263.13;5117993;28;20195;-66
2023/09/09 01:11:43;;;;;;;5.57;5.05;;;;;;;18.85;67.61;95259.16;5118345;28;20203;-66
2023/09/09 01:14:11;;;;;;;5.78;5.25;;;;;;;18.82;67.59;95265.53;5118237;28;20259;-65
2023/09/09 01:16:37;;;;;;;5.57;4.78;;;;;;;18.81;68.01;95261.16;5117769;28;20210;-65
2023/09/09 01:19:04;;;;;;;5.55;5.05;;;;;;;18.80;67.99;95272.72;5117780;28;20280;-65
2023/09/09 01:21:32;;;;;;;5.68;4.85;;;;;;;18.75;68.34;95262.75;5118069;28;20184;-66
2023/09/09 01:24:00;;;;;;;5.70;5.20;;;;;;;18.71;68.42;95262.75;5117189;28;20203;-66
2023/09/09 01:26:27;;;;;;;6.05;4.80;;;;;;;18.73;68.29;95263.13;5116980;28;20200;-66
2023/09/09 01:28:54;;;;;;;6.53;5.20;;;;;;;18.70;68.67;95263.94;5116976;27;20199;-66
2023/09/09 01:31:20;;;;;;;6.03;5.22;;;;;;;18.70;69.00;95265.91;5138442;27;20512;-66
2023/09/09 01:33:48;;;;;;;7.03;4.60;;;;;;;18.67;69.21;95261.94;5119966;27;20331;-66
2023/09/09 01:36:15;;;;;;;5.15;4.63;;;;;;;18.66;69.17;95256.75;5138043;27;20274;-65
2023/09/09 01:38:42;;;;;;;5.13;4.65;;;;;;;18.62;69.51;95256.75;5138235;27;20259;-65
2023/09/09 01:41:10;;;;;;;5.53;5.03;;;;;;;18.59;69.38;95256.75;5120191;27;20195;-65
2023/09/09 01:43:37;;;;;;;5.15;4.70;;;;;;;18.55;69.59;95264.34;5120387;27;20255;-65
2023/09/09 01:46:04;;;;;;;7.13;4.97;;;;;;;18.52;69.82;95265.94;5138076;27;20532;-66
2023/09/09 01:48:30;;;;;;;5.13;4.70;;;;;;;18.50;70.15;95262.75;5120118;27;20195;-66
2023/09/09 01:50:57;;;;;;;5.13;4.63;;;;;;;18.46;69.96;95268.34;5120277;27;20214;-66
2023/09/09 01:53:24;;;;;;;5.32;4.82;;;;;;;18.45;70.10;95266.75;5120429;27;20279;-66
2023/09/09 01:55:50;;;;;;;6.82;5.30;;;;;;;18.45;69.88;95261.16;5137807;27;20175;-66
2023/09/09 01:58:18;;;;;;;5.38;4.82;;;;;;;18.42;70.05;95261.94;5119817;27;20207;-66
2023/09/09 02:00:45;;;;;;;5.55;4.95;;;;;;;18.40;70.38;95257.94;5119829;27;20195;-66
2023/09/09 02:03:12;;;;;;;5.65;4.80;;;;;;;18.39;70.46;95267.53;5120017;27;20202;-66
2023/09/09 02:05:39;;;;;;;6.35;4.85;;;;;;;18.37;70.64;95267.13;5137766;27;20286;-66
2023/09/09 02:08:06;;;;;;;4.85;4.45;;;;;;;18.36;70.78;95263.53;5119626;27;20191;-66
2023/09/09 02:10:33;;;;;;;5.10;4.70;;;;;;;18.33;70.65;95264.31;5137578;27;20188;-66
2023/09/09 02:13:00;;;;;;;5.40;4.90;;;;;;;18.32;70.70;95261.94;5119719;27;20210;-66
2023/09/09 02:15:28;;;;;;;5.57;5.07;;;;;;;18.32;70.46;95257.16;5137598;27;20175;-66
2023/09/09 02:17:57;;;;;;;5.38;4.88;;;;;;;18.29;70.66;95258.75;5137396;27;20213;-65
2023/09/09 02:20:24;;;;;;;6.03;4.90;;;;;;;18.26;70.78;95259.56;5119413;27;20214;-65
2023/09/09 02:22:51;;;;;;;6.20;5.55;;;;;;;18.22;70.96;95264.31;5119703;27;20195;-65
2023/09/09 02:25:18;;;;;;;5.88;5.20;;;;;;;18.21;70.99;95261.94;5119743;27;20214;-65
2023/09/09 02:27:45;;;;;;;5.65;5.00;;;;;;;18.18;70.90;95259.94;5119353;27;20191;-66
2023/09/09 02:30:13;;;;;;;6.10;5.25;;;;;;;18.16;70.93;95259.56;5119082;27;20671;-65
2023/09/09 02:32:41;;;;;;;5.47;5.00;;;;;;;18.08;70.89;95255.94;5118895;27;20203;-65
2023/09/09 02:35:09;;;;;;;5.55;5.00;;;;;;;18.04;70.96;95263.50;5119685;27;20206;-65
2023/09/09 02:37:36;;;;;;;7.55;5.50;;;;;;;18.00;71.60;95262.72;5119190;27;20203;-65
2023/09/09 02:40:04;;;;;;;5.35;4.95;;;;;;;17.93;71.60;95269.06;5119167;27;20203;-66
2023/09/09 02:42:30;;;;;;;5.93;5.43;;;;;;;17.88;71.76;95263.09;5136900;27;20183;-66
2023/09/09 02:44:57;;;;;;;6.05;5.45;;;;;;;17.84;71.52;95265.88;5137467;27;20205;-65
2023/09/09 02:47:24;;;;;;;6.50;5.80;;;;;;;17.79;71.29;95269.03;5136272;27;20191;-65
2023/09/09 02:49:52;;;;;;;5.53;5.03;;;;;;;17.78;71.12;95267.44;5118941;27;20194;-66
2023/09/09 02:52:19;;;;;;;6.13;5.40;;;;;;;17.73;70.74;95267.81;5136403;27;20720;-66
2023/09/09 02:54:46;;;;;;;6.00;4.88;;;;;;;17.66;71.35;95265.78;5118661;27;20199;-66
2023/09/09 02:57:13;;;;;;;5.75;5.15;;;;;;;17.65;71.60;95264.22;5119212;27;20241;-65
2023/09/09 02:59:39;;;;;;;6.03;5.00;;;;;;;17.63;70.89;95260.19;5137095;27;20222;-65
2023/09/09 03:02:06;;;;;;;5.63;5.13;;;;;;;17.59;71.01;95259.41;5118855;27;20199;-65
2023/09/09 03:04:33;;;;;;;5.63;5.22;;;;;;;17.53;71.23;95256.97;5136565;27;20194;-65
2023/09/09 03:07:02;;;;;;;5.60;5.10;;;;;;;17.48;71.28;95259.34;5118133;27;20210;-66
2023/09/09 03:09:30;;;;;;;6.05;5.47;;;;;;;17.44;71.42;95258.56;5119066;27;20199;-65
2023/09/09 03:11:57;;;;;;;5.68;5.18;;;;;;;17.41;71.84;95257.34;5118977;27;20214;-65
2023/09/09 03:14:24;;;;;;;5.47;4.97;;;;;;;17.41;71.67;95260.13;5118542;27;20203;-65
2023/09/09 03:16:51;;;;;;;6.10;5.50;;;;;;;17.38;71.95;95263.69;5118903;27;20191;-65
2023/09/09 03:19:17;;;;;;;5.72;5.20;;;;;;;17.39;72.00;95262.50;5136413;27;20265;-65
2023/09/09 03:21:44;;;;;;;5.53;5.03;;;;;;;17.39;71.82;95258.91;5118512;27;20209;-65
2023/09/09 03:24:12;;;;;;;7.03;5.43;;;;;;;17.38;71.67;95262.91;5101133;27;20580;-66
2023/09/09 03:26:39;;;;;;;6.40;5.80;;;;;;;17.39;71.40;95261.69;5135958;27;20650;-66
2023/09/09 03:29:06;;;;;;;5.47;4.97;;;;;;;17.36;71.77;95266.09;5117899;27;20199;-65
2023/09/09 03:31:33;;;;;;;6.25;5.65;;;;;;;17.28;71.42;95265.25;5135897;27;20198;-66
2023/09/09 03:34:00;;;;;;;5.68;5.18;;;;;;;17.23;71.70;95257.25;5136328;27;20187;-66
2023/09/09 03:36:27;;;;;;;5.70;5.20;;;;;;;17.19;71.84;95270.38;5135897;28;20191;-66
2023/09/09 03:38:53;;;;;;;7.00;5.50;;;;;;;17.17;71.52;95266.38;5118035;28;20650;-66
2023/09/09 03:41:22;;;;;;;6.00;5.40;;;;;;;17.13;71.27;95260.78;5118236;28;20202;-66
2023/09/09 03:43:49;;;;;;;6.13;5.53;;;;;;;17.08;71.31;95263.97;5136193;28;20206;-66
2023/09/09 03:46:15;;;;;;;6.35;5.75;;;;;;;17.07;71.90;95265.97;5118191;28;20202;-66
2023/09/09 03:48:42;;;;;;;6.43;5.70;;;;;;;17.09;71.49;95259.97;5135925;28;20610;-66
2023/09/09 03:51:09;;;;;;;7.10;5.75;;;;;;;17.08;72.02;95269.53;5118719;28;20191;-65
2023/09/09 03:53:35;;;;;;;6.00;5.40;;;;;;;17.05;71.89;95268.31;5118437;28;20207;-66
2023/09/09 03:56:02;;;;;;;7.78;5.45;;;;;;;17.04;71.70;95275.09;5117973;28;20191;-66
2023/09/09 03:58:30;;;;;;;6.30;5.70;;;;;;;17.04;71.50;95272.31;5139087;27;20206;-67
2023/09/09 04:01:05;;;;;;;5.80;5.40;;;;;;;17.01;71.42;95275.06;5140197;27;20183;-65
2023/09/09 04:03:33;;;;;;;7.75;6.00;;;;;;;16.96;71.35;95276.25;5122433;27;20194;-66
2023/09/09 04:06:01;;;;;;;6.05;5.45;;;;;;;16.89;71.85;95276.19;5121922;27;20213;-66
2023/09/09 04:08:29;;;;;;;7.47;5.70;;;;;;;16.88;71.84;95276.56;5140106;27;20184;-65
2023/09/09 04:10:56;;;;;;;6.90;6.30;;;;;;;16.89;71.99;95278.19;5121953;27;20211;-65
2023/09/09 04:13:22;;;;;;;6.68;5.97;;;;;;;16.87;71.72;95269.41;5139644;27;20264;-65
2023/09/09 04:15:53;;;;;;;6.78;6.07;;;;;;;16.88;71.88;95273.78;5140003;27;20236;-65
2023/09/09 04:18:19;;;;;;;6.93;6.28;;;;;;;16.83;71.58;95272.97;5139320;27;20260;-65
2023/09/09 04:20:46;;;;;;;7.18;6.55;;;;;;;16.75;71.64;95273.31;5139786;27;20186;-65
2023/09/09 04:23:13;;;;;;;7.25;6.18;;;;;;;16.71;71.98;95269.69;5122216;27;20194;-65
2023/09/09 04:25:40;;;;;;;6.72;6.10;;;;;;;16.70;72.00;95273.63;5139427;27;20187;-65
2023/09/09 04:28:09;;;;;;;10.13;6.32;;;;;;;16.70;72.19;95274.44;5121539;27;20568;-66
2023/09/09 04:30:36;;;;;;;6.72;6.05;;;;;;;16.72;71.79;95274.06;5139599;27;20230;-65
2023/09/09 04:33:05;;;;;;;6.57;6.07;;;;;;;16.72;72.35;95272.06;5139581;27;20183;-66
2023/09/09 04:35:31;;;;;;;6.80;6.20;;;;;;;16.72;71.69;95268.50;5121667;27;20206;-65
2023/09/09 04:37:58;;;;;;;6.88;6.20;;;;;;;16.68;72.42;95276.03;5139025;27;20635;-66
2023/09/09 04:40:25;;;;;;;7.43;6.03;;;;;;;16.69;71.88;95280.41;5121423;27;20199;-66
2023/09/09 04:42:51;;;;;;;7.95;6.10;;;;;;;16.70;72.13;95270.84;5121514;27;20206;-66
2023/09/09 04:45:19;;;;;;;6.78;6.18;;;;;;;16.72;72.12;95277.63;5139399;27;20247;-66
2023/09/09 04:47:45;;;;;;;7.95;6.30;;;;;;;16.72;71.68;95277.63;5121140;27;20217;-66
2023/09/09 04:50:14;;;;;;;7.90;6.45;;;;;;;16.73;71.91;95275.66;5139253;27;20247;-65
2023/09/09 04:52:40;;;;;;;7.88;6.20;;;;;;;16.76;72.11;95267.34;5139150;27;20214;-65
2023/09/09 04:55:08;;;;;;;6.90;6.30;;;;;;;16.77;72.35;95277.28;5121091;27;20244;-65
2023/09/09 04:57:34;;;;;;;7.13;6.43;;;;;;;16.78;72.07;95273.34;5139109;27;20191;-65
2023/09/09 05:00:06;;;;;;;8.00;6.43;;;;;;;16.78;72.30;95275.34;5120869;27;20214;-66
2023/09/09 05:02:33;;;;;;;7.22;6.53;;;;;;;16.76;72.42;95272.91;5138924;27;20194;-66
2023/09/09 05:05:03;;;;;;;7.80;6.60;;;;;;;16.80;73.08;95276.53;5121015;27;20191;-66
2023/09/09 05:07:32;;;;;;;9.13;6.63;;;;;;;16.83;73.28;95272.16;5138982;27;20187;-66
2023/09/09 05:09:59;;;;;;;7.63;6.30;;;;;;;16.87;73.37;95280.56;5138046;27;20241;-66
2023/09/09 05:12:25;;;;;;;6.78;6.13;;;;;;;16.89;73.15;95278.19;5138762;27;20183;-64
2023/09/09 05:14:52;;;;;;;6.18;5.65;;;;;;;16.91;73.61;95276.59;5120331;27;20195;-64
2023/09/09 05:17:19;;;;;;;7.70;6.60;;;;;;;16.92;73.91;95278.22;5138991;27;20195;-64
2023/09/09 05:19:45;;;;;;;6.97;6.15;;;;;;;16.94;74.21;95270.25;5138459;27;20199;-64
2023/09/09 05:22:12;;;;;;;7.38;6.22;;;;;;;16.97;73.92;95275.03;5138683;27;20218;-64
2023/09/09 05:24:41;;;;;;;7.88;5.93;;;;;;;16.97;74.05;95266.69;5138131;27;20199;-64
2023/09/09 05:27:08;;;;;;;7.45;6.38;;;;;;;16.96;73.93;95262.31;5121011;27;20198;-64
2023/09/09 05:29:34;;;;;;;6.97;6.35;;;;;;;17.01;74.09;95269.50;5138770;27;20223;-64
2023/09/09 05:32:01;;;;;;;6.82;6.22;;;;;;;17.01;74.09;95270.28;5138513;27;20189;-64
2023/09/09 05:34:28;;;;;;;8.57;6.18;;;;;;;17.06;74.29;95267.13;5138032;27;20186;-64
2023/09/09 05:36:55;;;;;;;7.28;6.53;;;;;;;17.12;74.53;95270.34;5138299;27;20622;-64
2023/09/09 05:39:22;;;;;;;7.35;6.05;;;;;;;17.22;73.98;95272.41;5120664;27;20226;-65
2023/09/09 05:41:50;;;;;;;6.40;5.78;;;;;;;17.30;73.78;95278.81;5120130;27;20265;-65
2023/09/09 05:44:17;;;;;;;7.10;6.45;;;;;;;17.38;73.50;95274.06;5119762;27;20195;-64
2023/09/09 05:46:44;;;;;;;7.55;6.55;;;;;;;17.39;73.75;95278.44;5120271;27;20191;-64
2023/09/09 05:49:11;;;;;;;10.93;7.75;;;;;;;17.46;73.76;95278.47;5137821;27;20254;-64
2023/09/09 05:51:37;;;;;;;8.15;7.35;;;;;;;17.46;73.75;95270.88;5120003;27;20206;-64
2023/09/09 05:54:04;;;;;;;8.82;7.85;;;;;;;17.50;73.81;95279.28;5137992;27;20194;-64
2023/09/09 05:56:31;;;;;;;11.70;9.27;;;;;;;17.53;73.92;95273.72;5137880;27;20187;-64
2023/09/09 05:58:59;;;;;;;9.75;8.00;;;;;;;17.60;73.22;95280.50;5137901;27;20279;-64
2023/09/09 06:01:25;;;;;;;8.23;7.50;;;;;;;17.59;73.18;95287.28;5138160;27;20179;-64
2023/09/09 06:03:54;;;;;;;8.98;8.05;;;;;;;17.60;73.75;95274.94;5119692;27;20252;-64
2023/09/09 06:06:21;;;;;;;8.88;8.07;;;;;;;17.61;73.63;95287.69;5137822;27;20215;-64
2023/09/09 06:08:48;;;;;;;11.68;8.10;;;;;;;17.65;73.30;95278.16;5119567;27;20253;-64
2023/09/09 06:11:15;;;;;;;9.00;8.10;;;;;;;17.72;73.18;95282.94;5137584;27;20197;-64
2023/09/09 06:13:42;;;;;;;8.45;7.60;;;;;;;17.83;72.59;95283.00;5119933;27;20203;-64
2023/09/09 06:16:10;;;;;;;11.02;8.52;;;;;;;17.88;72.71;95283.41;5137554;27;20187;-64
2023/09/09 06:18:37;;;;;;;8.63;7.93;;;;;;;17.87;72.34;95281.81;5119324;27;20537;-64
2023/09/09 06:21:04;;;;;;;10.02;8.63;;;;;;;17.89;72.26;95287.78;5118462;27;20195;-65
2023/09/09 06:23:31;;;;;;;9.30;8.40;;;;;;;17.89;72.62;95289.78;5137182;27;20198;-64
2023/09/09 06:25:57;;;;;;;9.52;8.52;;;;;;;17.89;72.37;95285.00;5137040;27;20519;-64
2023/09/09 06:28:24;;;;;;;9.25;8.32;;;;;;;17.92;72.42;95291.78;5119248;27;20288;-64
2023/09/09 06:30:51;;;;;;;12.00;9.13;;;;;;;17.91;72.09;95285.41;5116076;28;20243;-64
2023/09/09 06:33:20;;;;;;;9.20;8.30;;;;;;;17.91;72.00;95290.22;5115846;28;20214;-65
2023/09/09 06:35:50;;;;;;;9.35;8.45;;;;;;;17.89;71.96;95279.44;5115763;28;20196;-64
2023/09/09 06:38:16;;;;;;;9.85;8.95;;;;;;;17.89;72.45;95279.44;5115800;28;20191;-64
2023/09/09 06:40:44;;;;;;;9.88;8.98;;;;;;;17.91;72.30;95276.25;5116633;28;20188;-64
2023/09/09 06:43:11;;;;;;;9.55;7.78;;;;;;;17.97;72.19;95280.25;5116691;28;20210;-64
2023/09/09 06:45:38;;;;;;;9.65;8.63;;;;;;;18.03;72.26;95281.44;5116682;28;20187;-64
2023/09/09 06:48:05;;;;;;;10.55;8.05;;;;;;;18.13;71.80;95288.25;5115213;28;20196;-64
2023/09/09 06:50:33;;;;;;;9.95;8.95;;;;;;;18.21;71.74;95281.47;5115191;28;20571;-64
2023/09/09 06:53:00;;;;;;;10.13;9.00;;;;;;;18.25;71.04;95282.28;5115896;28;20207;-64
2023/09/09 06:55:27;;;;;;;9.68;8.57;;;;;;;18.32;70.97;95279.50;5116029;28;20233;-64
2023/09/09 06:57:54;;;;;;;10.43;9.30;;;;;;;18.39;70.74;95281.50;5115510;28;20236;-64
2023/09/09 07:00:21;;;;;;;10.05;8.38;;;;;;;18.47;70.80;95281.09;5115150;28;20222;-64
2023/09/09 07:02:47;;;;;;;9.52;8.52;;;;;;;18.53;70.48;95281.50;5116407;28;20180;-64
2023/09/09 07:05:16;;;;;;;8.60;7.80;;;;;;;18.61;70.12;95283.09;5115401;28;20195;-64
2023/09/09 07:07:45;;;;;;;8.60;7.70;;;;;;;18.70;69.87;95282.66;5114734;28;20213;-64
2023/09/09 07:10:12;;;;;;;7.75;7.05;;;;;;;18.79;69.38;95283.09;5115246;28;20192;-64
2023/09/09 07:12:39;;;;;;;10.15;8.32;;;;;;;18.88;69.15;95282.69;5115747;28;20270;-64
2023/09/09 07:15:06;;;;;;;10.32;8.50;;;;;;;18.96;69.15;95281.50;5114781;28;20195;-64
2023/09/09 07:17:33;;;;;;;9.75;8.13;;;;;;;19.03;68.87;95280.66;5114816;28;20203;-64
2023/09/09 07:20:00;;;;;;;12.48;9.35;;;;;;;19.10;68.09;95280.66;5115189;28;20590;-64
2023/09/09 07:22:27;;;;;;;10.68;9.27;;;;;;;19.19;68.27;95269.84;5115077;28;20202;-64
2023/09/09 07:24:55;;;;;;;8.52;7.50;;;;;;;19.28;68.03;95278.63;5115549;28;20187;-64
2023/09/09 07:27:22;;;;;;;8.82;7.65;;;;;;;19.39;67.45;95278.56;5115519;28;20256;-64
2023/09/09 07:29:49;;;;;;;9.60;8.15;;;;;;;19.50;66.72;95282.16;5114665;28;20224;-64
2023/09/09 07:32:15;;;;;;;10.38;8.40;;;;;;;19.64;65.09;95275.69;5115515;28;20187;-64
2023/09/09 07:34:42;;;;;;;7.90;7.13;;;;;;;19.75;62.59;95276.44;5114890;28;20600;-64
2023/09/09 07:37:09;;;;;;;7.72;7.03;;;;;;;19.85;62.59;95281.19;5115680;28;20236;-65
2023/09/09 07:39:45;;;;;;;5.97;5.40;;;;;;;20.02;57.77;95287.13;5114615;28;20218;-66
2023/09/09 07:42:14;;;;;;;4.63;4.22;;;;;;;20.19;53.86;95287.00;5114616;28;20623;-64
2023/09/09 07:44:40;;;;;;;6.40;4.07;;;;;;;20.35;52.73;95277.28;5115302;28;20609;-64
2023/09/09 07:47:08;;;;;;;6.82;5.10;;;;;;;20.44;56.39;95274.81;5115544;28;20244;-64
2023/09/09 07:49:35;;;;;;;7.00;4.55;;;;;;;20.57;52.98;95278.75;5115748;28;20199;-64
2023/09/09 07:52:02;;;;;;;5.35;4.85;;;;;;;20.71;55.04;95272.22;5115380;28;20206;-64
2023/09/09 07:54:29;;;;;;;4.78;4.00;;;;;;;20.90;53.73;95274.44;5114508;28;20200;-64
2023/09/09 07:56:56;;;;;;;5.43;4.10;;;;;;;21.01;53.89;95265.94;5114820;28;20196;-64
2023/09/09 07:59:24;;;;;;;4.15;3.80;;;;;;;21.14;52.45;95277.44;5115429;28;20215;-64
2023/09/09 08:01:51;;;;;;;4.18;3.75;;;;;;;21.20;51.16;95272.16;5115349;28;20194;-64
2023/09/09 08:04:18;;;;;;;4.40;4.00;;;;;;;21.28;52.32;95268.88;5114522;28;20192;-64
2023/09/09 08:06:46;;;;;;;5.43;4.15;;;;;;;21.37;49.12;95269.19;5114514;28;20191;-64
2023/09/09 08:09:12;;;;;;;4.88;3.85;;;;;;;21.44;50.13;95271.13;5114826;28;20195;-64
2023/09/09 08:11:40;;;;;;;3.88;3.55;;;;;;;21.54;49.12;95269.41;5114100;28;20206;-64
2023/09/09 08:14:07;;;;;;;4.32;3.70;;;;;;;21.66;46.64;95268.84;5114569;28;20207;-64
2023/09/09 08:16:35;;;;;;;5.60;3.50;;;;;;;21.78;47.12;95270.28;5114327;28;20204;-64
2023/09/09 08:19:02;;;;;;;4.30;3.92;;;;;;;21.88;47.88;95261.72;5114410;28;20211;-66
2023/09/09 08:21:28;;;;;;;3.88;3.10;;;;;;;22.00;47.17;95265.19;5115272;28;20188;-68
2023/09/09 08:23:59;;;;;;;3.80;3.35;;;;;;;22.11;45.37;95260.22;5114289;28;20204;-64
2023/09/09 08:26:26;;;;;;;5.95;3.40;;;;;;;22.19;43.94;95261.75;5114810;28;20188;-64
2023/09/09 08:28:52;;;;;;;4.97;3.70;;;;;;;22.27;43.36;95262.44;5115401;28;20195;-64
2023/09/09 08:31:19;;;;;;;3.97;3.40;;;;;;;22.33;43.29;95255.91;5135081;28;20238;-64
2023/09/09 08:33:47;;;;;;;3.47;3.17;;;;;;;22.43;43.23;95254.13;5117264;28;20211;-64
2023/09/09 08:36:15;;;;;;;4.97;3.10;;;;;;;22.50;41.63;95248.41;5117626;28;20191;-63
2023/09/09 08:38:41;;;;;;;5.55;3.30;;;;;;;22.57;43.21;95258.75;5117221;28;20251;-63
2023/09/09 08:41:12;;;;;;;4.38;3.10;;;;;;;22.60;41.96;95255.09;5135323;28;20207;-63
2023/09/09 08:43:44;;;;;;;3.65;3.35;;;;;;;22.69;43.13;95246.09;5117435;28;20634;-63
2023/09/09 08:46:13;;;;;;;3.85;3.00;;;;;;;22.77;42.04;95239.94;5121500;27;20198;-63
2023/09/09 08:48:41;;;;;;;3.33;3.03;;;;;;;22.89;40.13;95238.53;5121251;27;20230;-63
2023/09/09 08:51:13;;;;;;;3.75;3.22;;;;;;;22.97;40.61;95233.59;5139279;27;20263;-63
2023/09/09 08:53:40;;;;;;;3.78;3.00;;;;;;;23.06;39.30;95240.25;5121179;27;20213;-63
2023/09/09 08:56:07;;;;;;;4.63;2.70;;;;;;;23.16;39.98;95240.47;5139164;27;20183;-63
2023/09/09 08:58:34;;;;;;;3.30;2.53;;;;;;;23.27;37.85;95227.78;5121284;27;20199;-63
2023/09/09 09:01:01;;;;;;;3.30;3.00;;;;;;;23.35;38.52;95234.09;5121080;27;20215;-63
2023/09/09 09:03:28;;;;;;;3.08;2.85;;;;;;;23.47;37.12;95229.81;5121031;27;20202;-63
2023/09/09 09:05:55;;;;;;;3.33;2.40;;;;;;;23.57;38.42;95231.63;5139097;27;20195;-63
2023/09/09 09:08:24;;;;;;;2.95;2.65;;;;;;;23.64;37.18;95225.84;5138950;27;20218;-63
2023/09/09 09:10:50;;;;;;;3.45;2.67;;;;;;;23.69;35.37;95225.34;5138945;27;20256;-63
2023/09/09 09:13:17;;;;;;;3.75;2.58;;;;;;;23.80;36.12;95222.31;5121045;27;20595;-63
2023/09/09 09:15:44;;;;;;;3.63;3.03;;;;;;;23.90;36.22;95232.56;5138942;27;20199;-63
2023/09/09 09:18:10;;;;;;;5.63;2.55;;;;;;;24.06;34.84;95226.16;5138804;27;20183;-63
2023/09/09 09:20:40;;;;;;;3.38;2.70;;;;;;;24.14;35.15;95226.78;5138565;27;20202;-63
2023/09/09 09:23:07;;;;;;;2.60;2.40;;;;;;;24.19;34.93;95218.63;5120764;27;20195;-63
2023/09/09 09:25:41;;;;;;;3.33;3.03;;;;;;;24.27;34.75;95227.69;5120400;27;20198;-63
2023/09/09 09:28:08;;;;;;;2.90;2.60;;;;;;;24.40;33.71;95225.81;5138357;27;20186;-64
2023/09/09 09:30:35;;;;;;;2.58;2.38;;;;;;;24.46;33.89;95224.03;5116525;28;20231;-66
2023/09/09 09:33:02;;;;;;;3.83;2.80;;;;;;;24.56;33.63;95222.19;5117422;28;20195;-64
2023/09/09 09:35:29;;;;;;;3.13;2.70;;;;;;;24.73;33.23;95215.31;5116903;28;20555;-63
2023/09/09 09:37:57;;;;;;;3.20;2.67;;;;;;;24.83;31.02;95210.63;5116914;28;20188;-63
2023/09/09 09:40:24;;;;;;;3.15;2.80;;;;;;;24.81;32.83;95215.13;5117696;28;20208;-63
2023/09/09 09:42:52;;;;;;;3.45;2.60;;;;;;;24.83;32.62;95207.00;5117648;28;20627;-63
2023/09/09 09:45:23;;;;;;;6.00;2.88;;;;;;;24.93;31.87;95200.31;5116917;28;20209;-63
2023/09/09 09:47:50;;;;;;;3.70;3.00;;;;;;;25.03;33.04;95204.09;5116774;28;20206;-63
2023/09/09 09:50:19;;;;;;;3.75;2.63;;;;;;;25.10;30.62;95201.88;5117576;28;20210;-63
2023/09/09 09:52:50;;;;;;;4.10;2.65;;;;;;;25.10;30.36;95195.44;5116541;28;20249;-63
2023/09/09 09:55:17;;;;;;;4.32;2.58;;;;;;;25.24;31.83;95202.72;5099728;28;20200;-63
2023/09/09 09:57:45;;;;;;;3.20;2.88;;;;;;;25.34;31.40;95193.94;5116536;28;20192;-63
2023/09/09 10:00:15;;;;;;;2.90;2.60;;;;;;;25.38;30.80;95180.56;5116322;28;20216;-63
2023/09/09 10:02:42;;;;;;;2.65;2.45;;;;;;;25.43;31.53;95190.50;5116268;28;20198;-63
2023/09/09 10:05:11;;;;;;;3.72;2.78;;;;;;;25.49;30.68;95190.72;5117029;28;20199;-63
2023/09/09 10:07:39;;;;;;;4.57;2.78;;;;;;;25.49;30.76;95185.06;5116198;28;20191;-64
2023/09/09 10:10:08;;;;;;;2.70;2.42;;;;;;;25.49;30.52;95183.06;5117382;28;20187;-64
2023/09/09 10:12:40;;;;;;;4.13;2.90;;;;;;;25.61;31.27;95185.13;5116223;28;20192;-64
2023/09/09 10:15:08;;;;;;;4.15;2.70;;;;;;;25.63;30.49;95171.31;5117109;28;20248;-63
2023/09/09 10:17:36;;;;;;;4.05;2.97;;;;;;;25.74;31.29;95175.88;5117240;28;20198;-64
2023/09/09 10:20:05;;;;;;;3.70;2.58;;;;;;;25.78;31.01;95171.72;5116900;28;20215;-65
2023/09/09 10:22:33;;;;;;;2.95;2.50;;;;;;;25.80;30.57;95166.44;5116941;28;20229;-63
2023/09/09 10:25:03;;;;;;;3.08;2.65;;;;;;;25.93;31.42;95164.41;5116723;28;20219;-63
2023/09/09 10:27:29;;;;;;;3.15;2.40;;;;;;;26.02;30.29;95172.19;5116778;28;20261;-63
2023/09/09 10:29:58;;;;;;;2.78;2.58;;;;;;;26.06;29.73;95166.44;5125483;27;20245;-63
2023/09/09 10:32:26;;;;;;;3.40;2.50;;;;;;;26.15;29.72;95167.34;5137004;27;20187;-63
2023/09/09 10:34:56;;;;;;;4.90;2.60;;;;;;;26.24;30.13;95169.50;5137278;27;20206;-63
2023/09/09 10:37:24;;;;;;;3.63;2.50;;;;;;;26.23;28.81;95155.81;5118801;27;20262;-63
2023/09/09 10:39:50;;;;;;;2.63;2.40;;;;;;;26.19;31.42;95158.75;5136985;27;20203;-63
2023/09/09 10:42:17;;;;;;;2.63;2.42;;;;;;;26.12;29.49;95167.47;5137113;27;20209;-63
2023/09/09 10:44:48;;;;;;;2.50;2.30;;;;;;;26.11;28.82;95152.56;5101737;27;20199;-63
2023/09/09 10:47:16;;;;;;;3.65;2.13;;;;;;;26.15;28.15;95152.44;5118757;27;20191;-63
2023/09/09 10:49:42;;;;;;;3.42;2.45;;;;;;;26.21;30.87;95144.16;5119044;27;20191;-63
2023/09/09 10:52:30;;;;;;;3.50;2.50;;;;;;;26.15;29.95;95146.78;5118946;27;20244;-63
2023/09/09 10:55:10;;;;;;;3.08;2.78;;;;;;;26.14;28.65;95148.00;5136859;27;20206;-64
2023/09/09 10:57:37;;;;;;;3.97;2.35;;;;;;;26.22;31.04;95140.91;5118518;27;20209;-63
2023/09/09 11:00:06;;;;;;;2.90;2.63;;;;;;;26.26;28.16;95140.78;5118533;27;20537;-63
2023/09/09 11:02:44;;;;;;;3.00;2.80;;;;;;;26.37;28.75;95135.56;5118599;27;20248;-63
2023/09/09 11:05:12;;;;;;;2.53;2.25;;;;;;;26.44;28.72;95134.53;5119219;27;20191;-63
2023/09/09 11:07:41;;;;;;;2.40;2.20;;;;;;;26.38;27.09;95137.13;5136175;27;20183;-63
2023/09/09 11:10:08;;;;;;;2.60;2.40;;;;;;;26.45;28.96;95133.28;5118836;27;20191;-63
2023/09/09 11:12:37;;;;;;;5.18;2.50;;;;;;;26.50;27.80;95130.69;5118426;27;20195;-63
2023/09/09 11:15:08;;;;;;;2.70;2.50;;;;;;;26.49;27.42;95136.81;5136764;27;20244;-63
2023/09/09 11:17:35;;;;;;;2.53;2.42;;;;;;;26.53;27.11;95134.66;5118549;27;20183;-63
2023/09/09 11:20:03;;;;;;;3.70;3.40;;;;;;;26.47;27.68;95133.63;5136367;27;20211;-63
2023/09/09 11:22:30;;;;;;;8.00;7.30;;;;;;;26.45;28.47;95122.75;5118209;27;20210;-63
2023/09/09 11:24:59;;;;;;;7.82;7.13;;;;;;;26.52;27.91;95133.06;5118896;27;20203;-63
2023/09/09 11:27:26;;;;;;;6.90;6.25;;;;;;;26.56;28.45;95130.91;5118027;27;20203;-64
2023/09/09 11:29:53;;;;;;;5.65;5.15;;;;;;;26.55;27.54;95130.13;5114554;28;20242;-63
2023/09/09 11:32:26;;;;;;;6.13;5.38;;;;;;;26.55;29.23;95127.31;5114990;28;20264;-63
2023/09/09 11:34:53;;;;;;;3.40;3.00;;;;;;;26.54;28.23;95120.03;5115704;28;20196;-63